createdAt,value
2018-05-11T00:02:17.992Z,55.16
2018-05-11T00:04:44.634Z,55.88
2018-05-11T00:07:11.262Z,56.09
2018-05-11T00:09:37.795Z,56.43
2018-05-11T00:12:04.345Z,57.03
2018-05-11T00:14:30.938Z,57.65
2018-05-11T00:16:57.494Z,57.79
2018-05-11T00:19:23.993Z,57.69
2018-05-11T00:21:50.578Z,57.73
2018-05-11T00:24:17.096Z,57.94
2018-05-11T00:26:43.789Z,57.90
2018-05-11T00:29:10.611Z,57.87
2018-05-11T00:31:37.483Z,57.98
2018-05-11T00:34:03.997Z,58.61
2018-05-11T00:36:30.573Z,58.56
2018-05-11T00:38:57.056Z,58.53
2018-05-11T00:41:23.709Z,58.53
2018-05-11T00:43:50.294Z,58.23
2018-05-11T00:46:16.865Z,57.75
2018-05-11T00:48:43.454Z,57.92
2018-05-11T00:51:09.963Z,58.13
2018-05-11T00:53:36.773Z,59.73
2018-05-11T00:56:03.373Z,60.18
2018-05-11T00:58:29.846Z,60.20
2018-05-11T01:00:56.428Z,60.48
2018-05-11T01:03:22.961Z,60.71
2018-05-11T01:05:49.696Z,60.39
2018-05-11T01:08:16.330Z,61.10
2018-05-11T01:10:43.103Z,61.46
2018-05-11T01:13:09.727Z,61.59
2018-05-11T01:15:36.329Z,61.94
2018-05-11T01:18:02.814Z,61.83
2018-05-11T01:20:29.407Z,61.79
2018-05-11T01:22:56.033Z,61.80
2018-05-11T01:25:22.610Z,61.87
2018-05-11T01:27:49.143Z,61.57
2018-05-11T01:30:15.669Z,61.45
2018-05-11T01:32:42.343Z,61.63
2018-05-11T01:35:09.034Z,61.96
2018-05-11T01:37:35.612Z,62.32
2018-05-11T01:40:02.159Z,62.39
2018-05-11T01:42:28.783Z,62.42
2018-05-11T01:44:55.219Z,62.50
2018-05-11T01:47:21.773Z,62.23
2018-05-11T01:49:48.389Z,61.82
2018-05-11T01:52:15.056Z,61.88
2018-05-11T01:54:41.640Z,61.91
2018-05-11T01:57:08.268Z,61.73
2018-05-11T01:59:34.764Z,61.56
2018-05-11T02:02:01.266Z,61.01
2018-05-11T02:04:27.921Z,61.20
2018-05-11T02:06:54.506Z,61.18
2018-05-11T02:12:02.089Z,61.12
2018-05-11T02:14:28.568Z,61.13
2018-05-11T02:16:55.176Z,60.86
2018-05-11T02:19:21.764Z,60.83
2018-05-11T02:21:48.298Z,61.05
2018-05-11T02:24:15.007Z,61.12
2018-05-11T02:26:48.606Z,61.32
2018-05-11T02:29:15.081Z,60.81
2018-05-11T02:31:41.584Z,61.80
2018-05-11T02:34:08.228Z,61.63
2018-05-11T02:36:34.748Z,61.56
2018-05-11T02:39:01.260Z,61.50
2018-05-11T02:41:27.906Z,61.11
2018-05-11T02:43:54.494Z,60.67
2018-05-11T02:46:21.123Z,60.69
2018-05-11T02:48:47.663Z,61.12
2018-05-11T02:51:14.322Z,60.70
2018-05-11T02:53:40.897Z,60.25
2018-05-11T02:56:07.510Z,60.17
2018-05-11T02:58:34.072Z,60.21
2018-05-11T03:01:00.647Z,60.54
2018-05-11T03:03:27.306Z,60.33
2018-05-11T03:05:53.865Z,60.73
2018-05-11T03:08:20.441Z,60.85
2018-05-11T03:10:47.138Z,60.96
2018-05-11T03:13:13.849Z,61.16
2018-05-11T03:15:40.546Z,61.72
2018-05-11T03:18:07.145Z,61.59
2018-05-11T03:20:33.855Z,61.43
2018-05-11T03:23:00.590Z,61.63
2018-05-11T03:32:12.196Z,60.85
2018-05-11T03:34:38.688Z,61.25
2018-05-11T03:37:05.215Z,61.36
2018-05-11T03:39:31.803Z,61.45
2018-05-11T03:41:59.008Z,61.28
2018-05-11T03:44:25.623Z,60.74
2018-05-11T03:46:52.183Z,60.70
2018-05-11T03:49:18.715Z,61.64
2018-05-11T03:51:45.260Z,61.25
2018-05-11T03:54:11.809Z,61.47
2018-05-11T03:56:38.566Z,61.52
2018-05-11T03:59:05.239Z,62.00
2018-05-11T04:01:43.946Z,61.80
2018-05-11T04:04:22.715Z,61.87
2018-05-11T04:07:01.476Z,61.68
2018-05-11T04:09:27.869Z,61.68
2018-05-11T04:11:54.506Z,61.74
2018-05-11T04:14:21.577Z,61.80
2018-05-11T04:16:48.270Z,61.83
2018-05-11T04:19:14.854Z,61.64
2018-05-11T04:21:41.698Z,61.76
2018-05-11T04:24:08.319Z,61.70
2018-05-11T04:26:35.108Z,61.41
2018-05-11T04:29:01.662Z,60.91
2018-05-11T04:31:28.155Z,60.84
2018-05-11T04:33:54.851Z,61.01
2018-05-11T04:36:21.682Z,60.35
2018-05-11T04:38:48.318Z,60.64
2018-05-11T04:41:14.834Z,60.83
2018-05-11T04:43:41.468Z,60.71
2018-05-11T04:46:07.964Z,60.74
2018-05-11T04:51:15.600Z,59.81
2018-05-11T04:53:42.166Z,59.96
2018-05-11T04:56:08.822Z,60.33
2018-05-11T04:58:35.439Z,60.39
2018-05-11T05:01:01.932Z,60.34
2018-05-11T05:03:28.519Z,59.76
2018-05-11T05:05:54.950Z,59.60
2018-05-11T05:08:21.420Z,59.59
2018-05-11T05:10:48.051Z,59.80
2018-05-11T05:13:14.613Z,59.86
2018-05-11T05:15:41.206Z,59.89
2018-05-11T05:18:07.734Z,59.35
2018-05-11T05:20:34.490Z,59.24
2018-05-11T05:23:01.072Z,59.24
2018-05-11T05:25:27.669Z,59.23
2018-05-11T05:27:54.209Z,59.02
2018-05-11T05:30:20.746Z,59.03
2018-05-11T05:32:47.365Z,59.11
2018-05-11T05:35:13.888Z,58.77
2018-05-11T05:37:40.324Z,58.74
2018-05-11T05:40:06.737Z,58.93
2018-05-11T05:42:33.214Z,58.66
2018-05-11T05:45:06.747Z,58.45
2018-05-11T05:47:33.217Z,58.21
2018-05-11T05:49:59.793Z,58.23
2018-05-11T05:52:26.285Z,58.04
2018-05-11T05:54:52.849Z,58.29
2018-05-11T05:57:19.422Z,58.56
2018-05-11T05:59:45.988Z,58.69
2018-05-11T06:02:12.534Z,58.47
2018-05-11T06:04:39.149Z,58.33
2018-05-11T06:07:05.652Z,58.14
2018-05-11T06:09:32.311Z,58.31
2018-05-11T06:11:58.997Z,58.39
2018-05-11T06:14:25.516Z,58.03
2018-05-11T06:16:51.991Z,58.47
2018-05-11T06:19:18.431Z,58.66
2018-05-11T06:21:44.927Z,58.68
2018-05-11T06:24:11.486Z,58.42
2018-05-11T06:26:38.046Z,58.71
2018-05-11T06:29:04.538Z,58.96
2018-05-11T06:31:31.032Z,59.18
2018-05-11T06:33:57.592Z,59.39
2018-05-11T06:36:24.159Z,59.20
2018-05-11T06:38:50.705Z,59.20
2018-05-11T06:41:17.230Z,59.19
2018-05-11T06:43:43.799Z,59.13
2018-05-11T06:46:10.410Z,59.62
2018-05-11T06:48:36.986Z,59.17
2018-05-11T06:51:03.459Z,59.30
2018-05-11T06:53:30.004Z,59.19
2018-05-11T06:55:56.678Z,59.20
2018-05-11T06:58:23.212Z,58.99
2018-05-11T07:00:49.771Z,59.17
2018-05-11T07:03:16.442Z,58.76
2018-05-11T07:05:43.144Z,58.46
2018-05-11T07:08:09.632Z,58.56
2018-05-11T07:10:36.230Z,58.88
2018-05-11T07:13:05.134Z,58.98
2018-05-11T07:15:31.564Z,59.13
2018-05-11T07:17:58.095Z,59.19
2018-05-11T07:20:24.552Z,58.90
2018-05-11T07:22:51.147Z,58.55
2018-05-11T07:25:17.653Z,58.61
2018-05-11T07:27:44.179Z,58.14
2018-05-11T07:30:10.823Z,57.98
2018-05-11T07:32:37.322Z,57.95
2018-05-11T07:35:03.997Z,57.97
2018-05-11T07:37:30.424Z,57.96
2018-05-11T07:39:56.956Z,57.35
2018-05-11T07:42:23.453Z,57.02
2018-05-11T07:44:49.941Z,56.67
2018-05-11T07:47:16.601Z,56.43
2018-05-11T07:49:43.247Z,56.82
2018-05-11T07:52:09.800Z,56.05
2018-05-11T07:54:36.305Z,55.89
2018-05-11T07:57:02.980Z,55.93
2018-05-11T07:59:29.555Z,55.82
2018-05-11T08:01:56.077Z,56.15
2018-05-11T08:04:22.615Z,56.35
2018-05-11T08:06:49.134Z,56.31
2018-05-11T08:09:16.007Z,55.69
2018-05-11T08:11:42.693Z,55.47
2018-05-11T08:14:09.283Z,54.83
2018-05-11T08:16:35.837Z,54.72
2018-05-11T08:19:02.407Z,54.73
2018-05-11T08:21:29.009Z,54.00
2018-05-11T08:23:55.704Z,53.89
2018-05-11T08:26:22.242Z,53.41
2018-05-11T08:28:48.731Z,53.88
2018-05-11T08:31:15.190Z,53.39
2018-05-11T08:33:41.664Z,53.38
2018-05-11T08:36:08.313Z,52.97
2018-05-11T08:38:34.931Z,52.57
2018-05-11T08:41:01.477Z,52.20
2018-05-11T08:43:27.901Z,52.33
2018-05-11T08:45:54.517Z,52.42
2018-05-11T08:48:21.192Z,51.60
2018-05-11T08:50:47.821Z,51.49
2018-05-11T08:53:14.468Z,51.62
2018-05-11T08:55:41.136Z,51.54
2018-05-11T08:58:07.689Z,51.22
2018-05-11T09:00:34.274Z,51.23
2018-05-11T09:03:00.913Z,51.88
2018-05-11T09:05:27.453Z,52.08
2018-05-11T09:07:54.188Z,51.83
2018-05-11T09:10:20.823Z,51.29
2018-05-11T09:12:47.579Z,50.58
2018-05-11T09:15:14.128Z,49.80
2018-05-11T09:17:40.854Z,49.40
2018-05-11T09:20:07.405Z,48.69
2018-05-11T09:22:33.925Z,48.38
2018-05-11T09:25:00.674Z,48.74
2018-05-11T09:27:27.314Z,48.37
2018-05-11T09:29:53.842Z,48.55
2018-05-11T09:32:20.341Z,47.65
2018-05-11T09:34:46.889Z,47.82
2018-05-11T09:37:13.583Z,47.69
2018-05-11T09:39:40.095Z,47.73
2018-05-11T09:42:06.751Z,47.19
2018-05-11T09:44:33.234Z,47.25
2018-05-11T09:46:59.776Z,47.25
2018-05-11T09:49:26.410Z,47.02
2018-05-11T09:51:53.053Z,47.11
2018-05-11T09:54:19.593Z,46.84
2018-05-11T09:56:46.104Z,47.05
2018-05-11T09:59:12.665Z,46.75
2018-05-11T10:01:39.358Z,46.85
2018-05-11T10:04:05.865Z,46.78
2018-05-11T10:06:32.525Z,47.38
2018-05-11T10:08:59.145Z,46.55
2018-05-11T10:11:25.620Z,46.19
2018-05-11T10:13:52.220Z,47.12
2018-05-11T10:16:18.842Z,47.50
2018-05-11T10:18:45.434Z,47.59
2018-05-11T10:21:11.942Z,46.74
2018-05-11T10:23:38.448Z,46.17
2018-05-11T10:26:05.128Z,45.13
2018-05-11T10:28:31.618Z,44.75
2018-05-11T10:30:58.166Z,45.35
2018-05-11T10:33:24.783Z,45.26
2018-05-11T10:35:51.326Z,45.40
2018-05-11T10:38:17.950Z,45.01
2018-05-11T10:40:44.513Z,44.91
2018-05-11T10:43:11.120Z,44.33
2018-05-11T10:45:37.656Z,43.90
2018-05-11T10:48:04.337Z,44.02
2018-05-11T10:50:31.028Z,43.22
2018-05-11T10:52:57.637Z,43.97
2018-05-11T10:55:24.275Z,44.21
2018-05-11T10:57:50.913Z,44.53
2018-05-11T11:00:17.480Z,44.51
2018-05-11T11:02:44.045Z,44.64
2018-05-11T11:05:10.655Z,45.12
2018-05-11T11:07:37.282Z,47.32
2018-05-11T11:10:04.206Z,47.75
2018-05-11T11:12:30.772Z,47.76
2018-05-11T11:14:57.319Z,46.20
2018-05-11T11:17:24.041Z,46.72
2018-05-11T11:19:50.617Z,47.16
2018-05-11T11:22:17.206Z,46.57
2018-05-11T11:24:43.847Z,46.50
2018-05-11T11:27:10.404Z,45.30
2018-05-11T11:29:37.117Z,43.89
2018-05-11T11:32:03.678Z,43.65
2018-05-11T11:34:30.456Z,42.48
2018-05-11T11:36:56.909Z,42.14
2018-05-11T11:39:23.553Z,41.99
2018-05-11T11:41:50.219Z,42.49
2018-05-11T11:44:16.749Z,42.16
2018-05-11T11:46:43.534Z,40.83
2018-05-11T11:49:10.145Z,41.16
2018-05-11T11:51:36.732Z,41.49
2018-05-11T11:54:03.381Z,40.67
2018-05-11T11:56:29.975Z,41.27
2018-05-11T11:58:56.421Z,41.62
2018-05-11T12:01:23.022Z,41.72
2018-05-11T12:03:49.721Z,42.07
2018-05-11T12:06:16.291Z,41.29
2018-05-11T12:08:42.921Z,41.25
2018-05-11T12:11:09.501Z,40.74
2018-05-11T12:13:36.114Z,40.95
2018-05-11T12:16:02.771Z,41.54
2018-05-11T12:18:29.296Z,42.41
2018-05-11T12:20:55.980Z,43.76
2018-05-11T12:23:22.617Z,46.51
2018-05-11T12:25:49.361Z,49.92
2018-05-11T12:28:15.917Z,50.66
2018-05-11T12:30:42.646Z,51.73
2018-05-11T12:33:09.320Z,51.68
2018-05-11T12:35:35.974Z,53.88
2018-05-11T12:38:02.536Z,56.44
2018-05-11T12:40:29.241Z,58.27
2018-05-11T12:42:55.832Z,59.19
2018-05-11T12:45:22.381Z,58.96
2018-05-11T12:47:48.869Z,57.63
2018-05-11T12:50:15.441Z,57.69
2018-05-11T12:52:42.054Z,58.63
2018-05-11T12:55:08.882Z,57.89
2018-05-11T12:57:35.426Z,58.12
2018-05-11T13:00:02.022Z,57.69
2018-05-11T13:02:28.534Z,57.42
2018-05-11T13:04:55.108Z,57.36
2018-05-11T13:07:21.704Z,56.56
2018-05-11T13:09:48.327Z,58.52
2018-05-11T13:12:14.776Z,59.39
2018-05-11T13:14:41.308Z,57.63
2018-05-11T13:17:07.843Z,57.95
2018-05-11T13:19:34.481Z,57.64
2018-05-11T13:22:01.209Z,57.60
2018-05-11T13:24:27.834Z,58.29
2018-05-11T13:26:54.400Z,58.91
2018-05-11T13:29:21.059Z,58.81
2018-05-11T13:31:47.693Z,58.44
2018-05-11T13:34:14.153Z,58.46
2018-05-11T13:36:40.600Z,58.88
2018-05-11T13:39:07.120Z,59.56
2018-05-11T13:41:33.597Z,60.59
2018-05-11T13:44:00.236Z,60.93
2018-05-11T13:46:26.917Z,61.50
2018-05-11T13:49:00.314Z,62.79
2018-05-11T13:51:27.485Z,61.78
2018-05-11T13:53:54.039Z,61.94
2018-05-11T13:56:20.612Z,62.04
2018-05-11T13:58:47.208Z,61.88
2018-05-11T14:01:13.757Z,60.97
2018-05-11T14:03:40.237Z,61.02
2018-05-11T14:06:06.894Z,60.47
2018-05-11T14:08:33.425Z,61.45
2018-05-11T14:10:59.998Z,61.19
2018-05-11T14:13:26.650Z,60.72
2018-05-11T14:15:53.270Z,61.27
2018-05-11T14:18:19.718Z,60.42
2018-05-11T14:20:46.358Z,60.92
2018-05-11T14:23:12.877Z,60.95
2018-05-11T14:25:39.472Z,60.72
2018-05-11T14:28:05.975Z,61.29
2018-05-11T14:30:32.420Z,61.32
2018-05-11T14:32:58.960Z,61.13
2018-05-11T14:35:25.582Z,60.50
2018-05-11T14:37:52.237Z,60.80
2018-05-11T14:40:18.985Z,60.54
2018-05-11T14:42:45.605Z,60.40
2018-05-11T14:45:12.081Z,60.02
2018-05-11T14:47:38.570Z,60.86
2018-05-11T14:50:05.177Z,60.52
2018-05-11T14:52:31.710Z,60.15
2018-05-11T14:54:58.364Z,61.11
2018-05-11T14:57:25.091Z,59.99
2018-05-11T14:59:51.777Z,60.43
2018-05-11T15:02:18.485Z,59.80
2018-05-11T15:04:46.113Z,60.49
2018-05-11T15:07:17.762Z,59.59
2018-05-11T15:12:35.778Z,58.78
2018-05-11T15:15:02.791Z,59.02
2018-05-11T15:17:39.570Z,58.47
2018-05-11T15:20:07.079Z,57.18
2018-05-11T15:25:20.844Z,58.28
2018-05-11T15:27:57.869Z,58.74
2018-05-11T15:30:27.987Z,58.81
2018-05-11T15:32:54.779Z,58.83
2018-05-11T15:35:21.356Z,61.09
2018-05-11T15:37:52.611Z,58.21
2018-05-11T15:40:19.489Z,57.24
2018-05-11T15:42:48.470Z,56.59
2018-05-11T15:45:18.338Z,55.77
2018-05-11T15:47:45.120Z,56.94
2018-05-11T15:53:00.356Z,57.36
2018-05-11T15:55:28.223Z,56.69
2018-05-11T15:57:54.809Z,55.73
2018-05-11T16:00:40.790Z,56.49
2018-05-11T16:03:09.601Z,57.59
2018-05-11T16:05:45.394Z,55.80
2018-05-11T16:11:31.675Z,56.74
2018-05-11T16:14:00.431Z,57.37
2018-05-11T16:16:43.359Z,56.34
2018-05-11T16:19:09.930Z,56.91
2018-05-11T16:21:43.167Z,57.00
2018-05-11T16:24:47.323Z,57.63
2018-05-11T16:30:15.874Z,56.48
2018-05-11T16:32:51.172Z,56.43
2018-05-11T16:35:26.418Z,56.60
2018-05-11T16:37:53.225Z,55.60
2018-05-11T16:40:20.145Z,55.26
2018-05-11T16:42:46.714Z,55.12
2018-05-11T16:45:13.260Z,55.78
2018-05-11T16:47:54.656Z,55.95
2018-05-11T16:50:22.053Z,55.71
2018-05-11T16:56:30.096Z,56.35
2018-05-11T16:58:59.779Z,56.65
2018-05-11T17:01:27.085Z,57.05
2018-05-11T17:03:53.741Z,57.04
2018-05-11T17:06:20.354Z,56.65
2018-05-11T17:08:46.973Z,56.37
2018-05-11T17:11:13.524Z,56.72
2018-05-11T17:13:40.110Z,56.88
2018-05-11T17:16:06.913Z,57.52
2018-05-11T17:18:33.559Z,58.93
2018-05-11T17:21:01.310Z,59.83
2018-05-11T17:23:28.005Z,60.10
2018-05-11T17:26:01.163Z,60.09
2018-05-11T17:28:32.409Z,60.20
2018-05-11T17:30:59.731Z,60.31
2018-05-11T17:33:26.214Z,59.99
2018-05-11T17:35:52.890Z,59.83
2018-05-11T17:38:19.578Z,60.56
2018-05-11T17:40:47.053Z,61.12
2018-05-11T17:45:46.987Z,60.38
2018-05-11T17:48:13.724Z,59.97
2018-05-11T17:50:40.370Z,59.65
2018-05-11T17:53:07.714Z,59.82
2018-05-11T17:55:34.148Z,60.40
2018-05-11T17:58:00.913Z,60.62
2018-05-11T18:00:27.959Z,60.88
2018-05-11T18:02:55.720Z,60.57
2018-05-11T18:05:26.878Z,60.07
2018-05-11T18:10:40.520Z,60.45
2018-05-11T18:13:32.136Z,60.19
2018-05-11T18:19:21.730Z,59.74
2018-05-11T18:21:49.085Z,59.45
2018-05-11T18:24:20.105Z,59.38
2018-05-11T18:29:52.227Z,59.78
2018-05-11T18:32:18.975Z,59.80
2018-05-11T18:34:45.753Z,60.05
2018-05-11T18:37:13.761Z,60.31
2018-05-11T18:39:40.893Z,60.26
2018-05-11T18:48:43.556Z,61.45
2018-05-11T18:51:19.940Z,61.84
2018-05-11T18:53:48.752Z,61.88
2018-05-11T18:56:19.791Z,61.97
2018-05-11T18:58:56.093Z,62.20
2018-05-11T19:01:24.892Z,62.09
2018-05-11T19:03:52.184Z,62.31
2018-05-11T19:38:02.666Z,62.93
2018-05-11T19:43:16.481Z,62.80
2018-05-11T19:45:42.996Z,62.74
2018-05-11T19:51:12.121Z,62.72
2018-05-11T19:53:39.475Z,62.42
2018-05-11T19:56:06.171Z,62.58
2018-05-11T19:58:32.667Z,62.81
2018-05-11T20:00:59.295Z,62.70
2018-05-11T20:03:25.797Z,62.82
2018-05-11T20:05:52.343Z,63.02
2018-05-11T20:08:18.956Z,62.71
2018-05-11T20:10:45.606Z,62.97
2018-05-11T20:13:12.735Z,62.98
2018-05-11T20:15:39.965Z,62.97
2018-05-11T20:18:06.684Z,63.19
2018-05-11T20:20:33.254Z,63.01
2018-05-11T20:23:00.112Z,63.13
2018-05-11T20:25:26.601Z,62.96
2018-05-11T20:27:56.739Z,62.92
2018-05-11T20:30:23.566Z,62.93
2018-05-11T20:32:50.319Z,62.89
2018-05-11T20:35:16.737Z,62.83
2018-05-11T20:37:43.758Z,62.48
2018-05-11T20:40:10.697Z,62.07
2018-05-11T20:42:37.390Z,62.47
2018-05-11T20:45:04.226Z,62.22
2018-05-11T20:47:30.810Z,62.11
2018-05-11T20:49:57.582Z,62.03
2018-05-11T20:52:24.397Z,62.20
2018-05-11T20:54:51.268Z,62.25
2018-05-11T20:57:18.053Z,62.57
2018-05-11T20:59:44.914Z,62.76
2018-05-11T21:02:11.798Z,62.79
2018-05-11T21:04:38.580Z,63.08
2018-05-11T21:07:05.691Z,62.94
2018-05-11T21:09:32.554Z,62.68
2018-05-11T21:11:59.391Z,63.43
2018-05-11T21:14:28.458Z,63.50
2018-05-11T21:16:56.194Z,63.48
2018-05-11T21:19:23.130Z,62.85
2018-05-11T21:21:50.167Z,62.91
2018-05-11T21:24:17.918Z,63.07
2018-05-11T21:26:44.938Z,63.04
2018-05-11T21:29:11.743Z,63.39
2018-05-11T21:31:38.369Z,63.87
2018-05-11T21:34:05.055Z,63.69
2018-05-11T21:36:31.725Z,63.39
2018-05-11T21:38:58.793Z,63.11
2018-05-11T21:41:25.650Z,63.27
2018-05-11T21:43:52.532Z,63.47
2018-05-11T21:46:19.587Z,63.45
2018-05-11T21:48:46.373Z,63.18
2018-05-11T21:51:13.025Z,63.23
2018-05-11T21:53:39.770Z,63.36
2018-05-11T21:56:06.429Z,63.30
2018-05-11T21:58:33.159Z,63.14
2018-05-11T22:00:59.865Z,63.14
2018-05-11T22:03:26.686Z,63.18
2018-05-11T22:05:53.652Z,62.72
2018-05-11T22:08:20.152Z,62.61
2018-05-11T22:10:46.593Z,62.62
2018-05-11T22:13:13.095Z,62.97
2018-05-11T22:15:39.759Z,63.03
2018-05-11T22:18:06.304Z,62.79
2018-05-11T22:20:32.861Z,62.83
2018-05-11T22:22:59.297Z,62.72
2018-05-11T22:25:25.968Z,62.80
2018-05-11T22:27:52.475Z,62.47
2018-05-11T22:30:18.996Z,62.28
2018-05-11T22:32:45.468Z,62.27
2018-05-11T22:35:12.108Z,62.50
2018-05-11T22:37:38.766Z,62.31
2018-05-11T22:40:05.332Z,62.49
2018-05-11T22:42:31.913Z,62.48
2018-05-11T22:44:58.463Z,62.39
2018-05-11T22:47:24.895Z,62.67
2018-05-11T22:49:51.475Z,63.17
2018-05-11T22:52:18.081Z,63.09
2018-05-11T22:54:44.766Z,62.48
2018-05-11T22:57:11.328Z,62.50
2018-05-11T22:59:37.841Z,62.43
2018-05-11T23:02:04.363Z,62.45
2018-05-11T23:04:31.048Z,62.46
2018-05-11T23:06:57.805Z,62.10
2018-05-11T23:09:24.523Z,62.45
2018-05-11T23:11:51.079Z,62.80
2018-05-11T23:14:17.608Z,62.86
2018-05-11T23:16:44.147Z,62.81
2018-05-11T23:21:37.264Z,63.00
2018-05-11T23:24:03.811Z,63.00
2018-05-11T23:26:30.500Z,63.02
2018-05-11T23:28:57.000Z,63.19
2018-05-11T23:31:23.573Z,63.24
2018-05-11T23:33:50.110Z,63.14
2018-05-11T23:36:16.740Z,63.56
2018-05-11T23:38:43.476Z,63.87
2018-05-11T23:41:09.914Z,63.62
2018-05-11T23:43:36.590Z,63.45
2018-05-11T23:46:03.094Z,63.40
2018-05-11T23:48:29.620Z,63.03
2018-05-11T23:50:56.188Z,62.71
2018-05-11T23:53:22.844Z,63.71
2018-05-11T23:55:49.380Z,64.01
2018-05-11T23:58:16.043Z,63.15
